Time;durP1;ratioP1;P1;durP2;ratioP2;P2;SDS_P1;SDS_P2;PMS_P1;PMS_P2;Temp;Humidity;BMP_temperature;BMP_pressure;BME280_temperature;BME280_humidity;BME280_pressure;Samples;Min_cycle;Max_cycle;Signal;HPM_P1;HPM_P2
2022/10/07 00:01:06;;;;;;;7.13;2.10;;;15.20;1.00;;;;;;5044406;28;20520;-83
2022/10/07 00:03:35;;;;;;;4.40;2.63;;;15.10;1.00;;;;;;5046350;28;20456;-83
2022/10/07 00:06:07;;;;;;;3.57;2.30;;;15.10;1.00;;;;;;5041648;28;20579;-83
2022/10/07 00:08:36;;;;;;;2.60;2.40;;;15.20;1.00;;;;;;5042353;28;20476;-83
2022/10/07 00:11:06;;;;;;;7.40;3.03;;;15.20;1.00;;;;;;5039298;28;20445;-83
2022/10/07 00:13:37;;;;;;;6.00;3.93;;;15.20;99.90;;;;;;5045635;28;20543;-82
2022/10/07 00:16:07;;;;;;;4.17;3.13;;;15.20;1.00;;;;;;5041489;28;20454;-82
2022/10/07 00:18:36;;;;;;;4.87;3.13;;;15.10;99.90;;;;;;5041913;28;20828;-83
2022/10/07 00:21:08;;;;;;;8.73;3.37;;;15.00;1.00;;;;;;5044110;28;20455;-83
2022/10/07 00:23:36;;;;;;;5.50;3.60;;;15.10;99.90;;;;;;5040316;28;20463;-84
2022/10/07 00:26:06;;;;;;;4.57;3.00;;;15.10;1.00;;;;;;5041011;28;20482;-84
2022/10/07 00:28:35;;;;;;;5.07;2.90;;;15.20;1.00;;;;;;5042504;28;20609;-83
2022/10/07 00:31:05;;;;;;;3.50;3.20;;;15.10;1.00;;;;;;5039465;28;20838;-83
2022/10/07 00:33:36;;;;;;;4.50;2.90;;;15.10;1.00;;;;;;5043194;28;20951;-83
2022/10/07 00:36:08;;;;;;;3.83;3.07;;;14.90;1.00;;;;;;5040386;28;20458;-83
2022/10/07 00:38:36;;;;;;;7.43;2.97;;;15.10;57.00;;;;;;5043928;28;20483;-82
2022/10/07 00:41:04;;;;;;;6.20;4.33;;;15.10;99.90;;;;;;5049768;28;20451;-82
2022/10/07 00:43:33;;;;;;;5.47;2.93;;;15.00;1.00;;;;;;5050286;28;20541;-84
2022/10/07 00:46:07;;;;;;;3.40;2.47;;;14.90;99.90;;;;;;5052314;28;20555;-83
2022/10/07 00:48:38;;;;;;;4.70;3.03;;;14.90;99.90;;;;;;5055763;28;20466;-85
2022/10/07 00:51:09;;;;;;;8.63;3.13;;;15.00;61.80;;;;;;5045881;28;20447;-84
2022/10/07 00:53:40;;;;;;;3.67;3.37;;;15.00;1.00;;;;;;5048767;28;20459;-83
2022/10/07 00:56:10;;;;;;;7.43;3.13;;;15.00;1.00;;;;;;5046381;28;20455;-83
2022/10/07 00:58:40;;;;;;;5.00;3.53;;;15.00;1.00;;;;;;5050354;28;20463;-83
2022/10/07 01:01:08;;;;;;;7.80;3.17;;;15.10;1.00;;;;;;5044809;28;20513;-83
2022/10/07 01:03:37;;;;;;;5.70;2.70;;;15.10;1.00;;;;;;5045958;28;20925;-82
2022/10/07 01:06:08;;;;;;;3.37;2.73;;;15.10;1.00;;;;;;5051117;28;20877;-83
2022/10/07 01:08:36;;;;;;;4.33;2.53;;;15.00;1.00;;;;;;5040144;28;20508;-83
2022/10/07 01:11:13;;;;;;;4.70;3.53;;;15.00;99.90;;;;;;5045460;28;20451;-84
2022/10/07 01:13:50;;;;;;;3.63;2.80;;;15.00;94.00;;;;;;5045690;28;20519;-82
2022/10/07 01:16:29;;;;;;;3.80;2.80;;;15.00;99.90;;;;;;5047392;28;20520;-84
2022/10/07 01:19:08;;;;;;;4.67;3.53;;;15.00;99.90;;;;;;5040451;28;20485;-84
2022/10/07 01:21:45;;;;;;;3.53;3.07;;;15.10;1.00;;;;;;5043423;28;20518;-84
2022/10/07 01:24:24;;;;;;;3.40;3.10;;;15.00;1.00;;;;;;5040815;28;20447;-84
2022/10/07 01:26:59;;;;;;;5.20;2.97;;;15.20;99.90;;;;;;5037093;28;20480;-83
2022/10/07 01:29:32;;;;;;;5.63;2.87;;;15.10;1.00;;;;;;5045102;28;20471;-84
2022/10/07 01:32:05;;;;;;;5.40;3.07;;;15.00;99.90;;;;;;5047376;28;20469;-83
2022/10/07 01:34:35;;;;;;;3.90;3.17;;;15.10;99.90;;;;;;5046267;28;20918;-84
2022/10/07 01:37:08;;;;;;;7.83;3.33;;;15.10;99.90;;;;;;5043313;28;20504;-83
2022/10/07 01:39:40;;;;;;;3.77;2.87;;;15.10;99.90;;;;;;5041360;28;20622;-84
2022/10/07 01:42:11;;;;;;;4.23;3.30;;;14.90;1.00;;;;;;5048634;28;20446;-82
2022/10/07 01:44:41;;;;;;;6.93;3.10;;;14.90;99.90;;;;;;5047679;28;20454;-84
2022/10/07 01:47:09;;;;;;;4.30;2.80;;;14.90;3.20;;;;;;5042886;28;20479;-84
2022/10/07 01:49:37;;;;;;;2.70;2.50;;;14.90;99.90;;;;;;5048138;28;20462;-83
2022/10/07 01:52:22;;;;;;;5.47;3.33;;;14.90;1.00;;;;;;5041914;28;20460;-83
2022/10/07 01:55:07;;;;;;;4.80;3.70;;;15.00;1.00;;;;;;5041034;28;20458;-82
2022/10/07 01:57:43;;;;;;;4.40;3.37;;;14.90;99.90;;;;;;5045637;28;20495;-82
2022/10/07 02:00:14;;;;;;;4.70;3.10;;;14.80;1.00;;;;;;5043218;28;20542;-82
2022/10/07 02:03:07;;;;;;;4.57;3.70;;;14.70;1.00;;;;;;5048537;28;20515;-83
2022/10/07 02:05:46;;;;;;;5.87;3.50;;;14.70;99.90;;;;;;5044546;28;20530;-84
2022/10/07 02:08:26;;;;;;;8.13;3.97;;;14.80;1.00;;;;;;5044701;28;20530;-83
2022/10/07 02:11:11;;;;;;;5.73;2.70;;;14.80;99.90;;;;;;5045751;28;20553;-82
2022/10/07 02:13:47;;;;;;;3.30;3.00;;;14.80;99.90;;;;;;5046101;28;20486;-84
2022/10/07 02:16:18;;;;;;;3.00;2.70;;;14.80;99.90;;;;;;5053460;28;20531;-83
2022/10/07 02:18:51;;;;;;;4.27;3.10;;;14.80;1.00;;;;;;5039445;28;20468;-83
2022/10/07 02:21:23;;;;;;;4.10;2.83;;;14.70;1.00;;;;;;5042760;28;20511;-83
2022/10/07 02:23:53;;;;;;;3.40;3.10;;;14.80;99.90;;;;;;5046381;28;20993;-83
2022/10/07 02:26:23;;;;;;;6.40;2.77;;;14.80;1.00;;;;;;5051145;28;20489;-84
2022/10/07 02:28:56;;;;;;;4.67;2.70;;;14.70;86.30;;;;;;5044851;28;20985;-83
2022/10/07 02:31:30;;;;;;;3.73;3.40;;;14.80;99.90;;;;;;5045445;28;21012;-84
2022/10/07 02:34:00;;;;;;;3.53;3.07;;;14.80;1.00;;;;;;5047186;28;20452;-84
2022/10/07 02:36:31;;;;;;;5.43;3.10;;;14.80;1.00;;;;;;5056285;28;20533;-82
2022/10/07 02:39:00;;;;;;;4.80;2.53;;;14.90;1.00;;;;;;5046331;28;20539;-85
2022/10/07 02:41:34;;;;;;;3.13;2.80;;;14.90;99.90;;;;;;5042598;28;20464;-84
2022/10/07 02:44:13;;;;;;;5.47;3.00;;;14.80;99.90;;;;;;5048761;28;20444;-84
2022/10/07 02:46:46;;;;;;;2.97;2.53;;;14.80;1.00;;;;;;5047410;28;20474;-84
2022/10/07 02:49:17;;;;;;;5.73;3.33;;;14.80;1.00;;;;;;5043305;28;20552;-83
2022/10/07 02:51:51;;;;;;;6.13;4.03;;;14.70;99.90;;;;;;5039012;28;20465;-84
2022/10/07 02:54:30;;;;;;;3.73;3.00;;;14.80;99.90;;;;;;5043878;28;20457;-83
2022/10/07 02:57:00;;;;;;;3.97;2.90;;;14.80;1.00;;;;;;5050382;28;20445;-83
2022/10/07 02:59:33;;;;;;;6.03;3.10;;;14.80;1.00;;;;;;5040921;28;21021;-83
2022/10/07 03:02:04;;;;;;;6.53;2.90;;;14.90;99.90;;;;;;5044115;28;20448;-83
2022/10/07 03:04:32;;;;;;;4.63;2.73;;;14.90;99.90;;;;;;5040265;28;20453;-83
2022/10/07 03:07:01;;;;;;;4.23;3.40;;;14.90;99.90;;;;;;5044640;28;20510;-83
2022/10/07 03:09:30;;;;;;;3.20;2.47;;;14.90;99.90;;;;;;5039146;28;20483;-81
2022/10/07 03:11:58;;;;;;;4.53;2.80;;;14.80;99.90;;;;;;5052163;28;20962;-83
2022/10/07 03:14:26;;;;;;;3.13;2.40;;;14.80;1.00;;;;;;5051644;28;20827;-83
2022/10/07 03:16:56;;;;;;;3.67;2.80;;;14.80;1.00;;;;;;5042993;28;20483;-83
2022/10/07 03:19:24;;;;;;;3.80;3.50;;;14.80;1.00;;;;;;5039684;28;21309;-83
2022/10/07 03:21:53;;;;;;;5.20;2.90;;;14.80;1.00;;;;;;5044097;28;21139;-82
2022/10/07 03:24:21;;;;;;;3.00;2.70;;;14.70;99.90;;;;;;5041126;28;20995;-84
2022/10/07 03:26:49;;;;;;;4.87;3.07;;;14.80;99.90;;;;;;5044167;28;20487;-83
2022/10/07 03:29:17;;;;;;;5.23;2.83;;;14.80;99.90;;;;;;5042171;28;21149;-83
2022/10/07 03:31:46;;;;;;;3.33;3.13;;;14.80;99.90;;;;;;5044227;28;20500;-83
2022/10/07 03:34:15;;;;;;;4.53;3.03;;;14.80;1.00;;;;;;5044099;28;20513;-83
2022/10/07 03:36:44;;;;;;;3.97;3.10;;;14.80;1.00;;;;;;5045314;28;20456;-84
2022/10/07 03:39:12;;;;;;;3.53;3.20;;;14.90;1.00;;;;;;5040958;28;20476;-82
2022/10/07 03:41:41;;;;;;;3.90;3.27;;;14.80;1.00;;;;;;5038711;28;20457;-84
2022/10/07 03:44:09;;;;;;;3.30;2.40;;;14.80;1.00;;;;;;5040747;28;20459;-84
2022/10/07 03:46:37;;;;;;;3.03;2.80;;;14.70;99.90;;;;;;5044891;28;20467;-83
2022/10/07 03:49:05;;;;;;;5.37;3.20;;;14.80;99.90;;;;;;5044254;28;20549;-83
2022/10/07 03:51:35;;;;;;;6.10;3.03;;;14.80;99.90;;;;;;5039780;28;20449;-83
2022/10/07 03:54:04;;;;;;;4.87;3.07;;;14.80;99.90;;;;;;5043045;28;20463;-82
2022/10/07 03:56:32;;;;;;;9.03;3.10;;;14.80;99.90;;;;;;5042622;28;20544;-83
2022/10/07 03:59:00;;;;;;;4.37;2.70;;;14.70;99.90;;;;;;5040109;28;21038;-83
2022/10/07 04:01:30;;;;;;;8.53;3.03;;;14.70;99.90;;;;;;5036746;28;20505;-84
2022/10/07 04:03:59;;;;;;;3.30;3.00;;;14.80;99.90;;;;;;5043258;28;20550;-83
2022/10/07 04:06:27;;;;;;;3.47;2.70;;;14.70;99.90;;;;;;5047759;28;20455;-83
2022/10/07 04:08:57;;;;;;;7.70;2.60;;;14.80;99.90;;;;;;5048026;28;20521;-84
2022/10/07 04:11:26;;;;;;;5.03;2.80;;;14.80;99.90;;;;;;5041867;28;21143;-84
2022/10/07 04:13:54;;;;;;;7.93;2.90;;;14.80;99.90;;;;;;5049231;28;20466;-84
2022/10/07 04:16:22;;;;;;;5.03;3.20;;;14.80;99.90;;;;;;5047801;28;21110;-83
2022/10/07 04:18:55;;;;;;;4.80;2.90;;;14.70;1.00;;;;;;5051773;28;20505;-84
2022/10/07 04:21:23;;;;;;;3.50;3.07;;;14.90;82.10;;;;;;5051802;28;20818;-83
2022/10/07 04:23:52;;;;;;;6.03;4.40;;;14.70;72.20;;;;;;5052672;28;20448;-83
2022/10/07 04:26:21;;;;;;;3.57;3.23;;;14.70;1.00;;;;;;5050373;28;20444;-83
2022/10/07 04:28:50;;;;;;;5.27;3.50;;;14.70;1.00;;;;;;5051376;28;20843;-81
2022/10/07 04:31:18;;;;;;;6.83;3.30;;;14.70;1.00;;;;;;5049676;28;20455;-85
2022/10/07 04:33:46;;;;;;;6.67;4.27;;;14.70;99.90;;;;;;5043454;28;20450;-85
2022/10/07 04:36:14;;;;;;;4.27;3.20;;;14.60;1.00;;;;;;5045841;28;20459;-84
2022/10/07 04:38:45;;;;;;;6.40;3.43;;;14.70;99.90;;;;;;5046974;28;20506;-84
2022/10/07 04:41:13;;;;;;;4.27;3.40;;;14.80;99.90;;;;;;5039522;28;20541;-85
2022/10/07 04:43:43;;;;;;;4.77;2.97;;;14.70;99.90;;;;;;5050023;28;20959;-85
2022/10/07 04:46:13;;;;;;;4.07;3.00;;;14.70;1.00;;;;;;5057821;28;20942;-85
2022/10/07 04:48:44;;;;;;;6.00;3.30;;;14.70;99.90;;;;;;5055754;28;20498;-84
2022/10/07 04:51:13;;;;;;;5.63;2.73;;;14.70;99.90;;;;;;5050764;28;20459;-84
2022/10/07 04:53:41;;;;;;;3.10;2.90;;;14.60;99.90;;;;;;5065885;28;20497;-84
2022/10/07 04:56:10;;;;;;;3.50;3.30;;;14.70;99.90;;;;;;5045996;28;20501;-85
2022/10/07 04:58:38;;;;;;;3.47;3.17;;;14.60;99.90;;;;;;5045823;28;20471;-85
2022/10/07 05:01:10;;;;;;;8.10;3.80;;;14.70;95.80;;;;;;5041961;28;20939;-86
2022/10/07 05:03:39;;;;;;;3.77;3.47;;;14.70;1.00;;;;;;5045095;28;21467;-85
2022/10/07 05:06:08;;;;;;;4.17;3.77;;;14.70;1.00;;;;;;5052756;28;21034;-86
2022/10/07 05:08:37;;;;;;;3.50;3.20;;;14.70;99.90;;;;;;5042390;28;20533;-86
2022/10/07 05:11:05;;;;;;;4.40;3.60;;;14.70;99.90;;;;;;5044762;28;20456;-86
2022/10/07 05:13:34;;;;;;;3.77;3.30;;;14.60;36.80;;;;;;5047660;28;20468;-85
2022/10/07 05:16:02;;;;;;;4.57;3.43;;;14.60;99.90;;;;;;5047557;28;20499;-83
2022/10/07 05:18:34;;;;;;;4.03;3.43;;;14.70;42.60;;;;;;5041787;28;20473;-83
2022/10/07 05:21:05;;;;;;;5.00;4.33;;;14.70;99.90;;;;;;5045618;28;20453;-83
2022/10/07 05:23:36;;;;;;;3.80;3.50;;;14.70;44.20;;;;;;5049071;28;20448;-84
2022/10/07 05:26:07;;;;;;;3.90;3.70;;;14.80;99.90;;;;;;5049696;28;20446;-84
2022/10/07 05:28:36;;;;;;;4.40;3.67;;;14.80;33.70;;;;;;5047253;28;20488;-78
2022/10/07 05:31:06;;;;;;;9.37;3.83;;;14.70;43.20;;;;;;5046752;28;20452;-86
2022/10/07 05:33:36;;;;;;;3.67;3.40;;;14.60;1.00;;;;;;5043195;28;20452;-86
2022/10/07 05:36:05;;;;;;;3.47;3.27;;;14.50;99.90;;;;;;5042167;28;20994;-86
2022/10/07 05:38:34;;;;;;;3.83;3.27;;;14.50;1.00;;;;;;5048631;28;20474;-85
2022/10/07 05:41:05;;;;;;;4.50;3.70;;;14.50;56.10;;;;;;5042348;28;21022;-85
2022/10/07 05:43:35;;;;;;;5.27;3.83;;;14.40;99.90;;;;;;5048957;28;20525;-85
2022/10/07 05:46:05;;;;;;;4.53;4.10;;;14.50;99.90;;;;;;5044220;28;20510;-85
2022/10/07 05:48:35;;;;;;;4.23;4.00;;;14.40;99.90;;;;;;5040334;28;21084;-86
2022/10/07 05:51:07;;;;;;;5.50;4.40;;;14.50;1.00;;;;;;5042347;28;20452;-87
2022/10/07 05:53:39;;;;;;;5.83;4.40;;;14.50;99.90;;;;;;5047195;28;20463;-87
2022/10/07 05:56:09;;;;;;;5.63;4.40;;;14.60;99.90;;;;;;5043391;28;20456;-87
2022/10/07 05:58:37;;;;;;;7.90;4.37;;;14.60;1.00;;;;;;5045726;28;20816;-86
2022/10/07 06:01:08;;;;;;;4.20;3.80;;;14.60;66.90;;;;;;5050113;28;20790;-87
2022/10/07 06:03:43;;;;;;;4.93;3.80;;;14.60;1.00;;;;;;5045993;28;20540;-86
2022/10/07 06:06:11;;;;;;;5.50;4.10;;;14.70;1.00;;;;;;5049369;28;20459;-86
2022/10/07 06:08:39;;;;;;;4.97;4.03;;;14.80;99.90;;;;;;5047783;28;20542;-86
2022/10/07 06:13:56;;;;;;;6.10;4.07;;;14.90;1.00;;;;;;5046825;28;20545;-85
2022/10/07 06:16:25;;;;;;;4.60;3.77;;;14.90;1.00;;;;;;5040522;28;20477;-85
2022/10/07 06:18:55;;;;;;;4.80;3.70;;;15.00;99.90;;;;;;5049785;28;20502;-85
2022/10/07 06:21:26;;;;;;;4.93;3.70;;;14.90;99.90;;;;;;5045785;28;20444;-85
2022/10/07 06:23:56;;;;;;;4.33;3.33;;;15.00;1.00;;;;;;5052425;28;20538;-85
2022/10/07 06:26:25;;;;;;;4.80;3.60;;;15.00;99.90;;;;;;5058718;28;20513;-86
2022/10/07 06:28:53;;;;;;;3.90;3.50;;;15.10;99.90;;;;;;5051799;28;21004;-85
2022/10/07 06:31:24;;;;;;;3.47;3.17;;;15.20;1.00;;;;;;5047711;28;20494;-85
2022/10/07 06:33:54;;;;;;;10.90;4.00;;;15.20;43.10;;;;;;5051694;28;20440;-85
2022/10/07 06:36:22;;;;;;;4.30;4.00;;;15.20;99.90;;;;;;5048069;28;20673;-86
2022/10/07 06:38:52;;;;;;;6.50;4.77;;;15.30;1.00;;;;;;5050112;28;20546;-85
2022/10/07 06:41:22;;;;;;;5.57;3.30;;;15.40;72.60;;;;;;5042834;28;20459;-85
2022/10/07 06:43:56;;;;;;;4.33;3.70;;;15.40;99.90;;;;;;5051231;28;20495;-85
2022/10/07 06:46:24;;;;;;;11.17;3.90;;;15.40;1.00;;;;;;5047150;28;20804;-84
2022/10/07 06:48:54;;;;;;;7.33;4.60;;;15.50;99.90;;;;;;5051447;28;20836;-85
2022/10/07 06:51:22;;;;;;;3.47;3.27;;;15.60;1.00;;;;;;5051378;28;20453;-84
2022/10/07 06:53:53;;;;;;;5.83;4.93;;;15.60;99.90;;;;;;5047083;28;20449;-83
2022/10/07 06:56:21;;;;;;;3.80;3.50;;;15.80;1.00;;;;;;5050862;28;20468;-84
2022/10/07 06:58:49;;;;;;;5.20;4.43;;;15.70;99.90;;;;;;5049419;28;20534;-83
2022/10/07 07:01:17;;;;;;;5.03;4.73;;;15.50;99.90;;;;;;5045270;28;20526;-85
2022/10/07 07:03:46;;;;;;;8.30;5.97;;;15.60;1.00;;;;;;5045095;28;20463;-84
2022/10/07 07:06:16;;;;;;;7.17;4.90;;;15.70;99.90;;;;;;5055517;28;20463;-84
2022/10/07 07:08:44;;;;;;;7.90;4.97;;;15.70;1.00;;;;;;5051109;28;20483;-85
2022/10/07 07:14:01;;;;;;;10.90;5.83;;;15.80;1.00;;;;;;5049817;28;20452;-85
2022/10/07 07:16:30;;;;;;;7.03;5.90;;;15.90;99.90;;;;;;5047096;28;20465;-84
2022/10/07 07:19:01;;;;;;;6.30;5.40;;;16.00;99.90;;;;;;5051647;28;20527;-84
2022/10/07 07:21:32;;;;;;;5.87;5.33;;;16.10;99.90;;;;;;5048411;28;20459;-84
2022/10/07 07:24:01;;;;;;;10.03;6.60;;;16.10;99.90;;;;;;5042733;28;20599;-84
2022/10/07 07:26:30;;;;;;;9.40;7.10;;;16.30;99.90;;;;;;5050770;28;21049;-84
2022/10/07 07:29:00;;;;;;;7.27;6.53;;;16.40;99.90;;;;;;5044328;28;20488;-85
2022/10/07 07:31:31;;;;;;;17.43;9.50;;;16.50;1.00;;;;;;5043514;28;20446;-84
2022/10/07 07:34:01;;;;;;;9.57;6.47;;;16.60;12.90;;;;;;5043613;28;20445;-84
2022/10/07 07:36:33;;;;;;;9.40;5.90;;;16.90;1.00;;;;;;5046448;28;20459;-85
2022/10/07 07:39:04;;;;;;;7.00;6.47;;;17.10;99.90;;;;;;5043142;28;20902;-84
2022/10/07 07:41:35;;;;;;;7.87;6.87;;;17.50;1.00;;;;;;5045665;28;20541;-84
2022/10/07 07:44:05;;;;;;;7.80;7.10;;;17.80;1.00;;;;;;5047351;28;21034;-84
2022/10/07 07:46:36;;;;;;;6.63;6.20;;;18.10;1.00;;;;;;5050173;28;20469;-84
2022/10/07 07:49:05;;;;;;;6.90;6.30;;;18.50;99.90;;;;;;5040892;28;20473;-85
2022/10/07 07:51:35;;;;;;;9.87;6.53;;;18.90;99.90;;;;;;5042846;28;20460;-85
2022/10/07 07:54:03;;;;;;;7.50;6.90;;;19.30;1.00;;;;;;5046747;28;20836;-85
2022/10/07 07:56:32;;;;;;;9.23;7.37;;;19.50;1.00;;;;;;5042836;28;20502;-86
2022/10/07 07:59:01;;;;;;;7.60;6.93;;;19.90;1.00;;;;;;5037817;28;20502;-85
2022/10/07 08:01:30;;;;;;;7.83;7.10;;;20.20;1.00;;;;;;5042307;28;20455;-87
2022/10/07 08:03:59;;;;;;;8.67;7.70;;;20.20;1.00;;;;;;5050154;28;20455;-87
2022/10/07 08:06:30;;;;;;;7.43;6.67;;;20.40;1.00;;;;;;5044245;28;21169;-88
2022/10/07 08:08:59;;;;;;;9.90;6.73;;;20.80;99.90;;;;;;5038350;28;20476;-87
2022/10/07 08:11:28;;;;;;;5.57;5.13;;;21.00;99.90;;;;;;5044136;28;20486;-87
2022/10/07 08:13:56;;;;;;;7.47;6.13;;;21.20;99.90;;;;;;5039963;28;20478;-87
2022/10/07 08:16:27;;;;;;;7.23;6.47;;;21.40;99.90;;;;;;5042268;28;20545;-87
2022/10/07 08:18:57;;;;;;;6.57;5.93;;;21.80;99.90;;;;;;5047036;28;21006;-87
2022/10/07 08:21:31;;;;;;;6.73;6.23;;;22.20;99.90;;;;;;5048109;28;21416;-84
2022/10/07 08:24:03;;;;;;;6.43;5.83;;;22.50;99.90;;;;;;5044714;28;20476;-86
2022/10/07 08:26:33;;;;;;;7.97;5.63;;;22.60;99.90;;;;;;5043402;28;20889;-87
2022/10/07 08:29:01;;;;;;;6.23;5.57;;;22.80;99.90;;;;;;5045733;28;20497;-87
2022/10/07 08:31:30;;;;;;;6.93;5.80;;;23.10;99.90;;;;;;5040069;28;20491;-87
2022/10/07 08:34:00;;;;;;;7.80;5.47;;;23.50;99.90;;;;;;5045364;28;20503;-88
2022/10/07 08:36:31;;;;;;;7.93;4.70;;;23.80;99.90;;;;;;5045454;28;20462;-87
2022/10/07 08:39:01;;;;;;;5.83;5.20;;;24.60;99.90;;;;;;5036004;28;20511;-87
2022/10/07 08:41:42;;;;;;;5.60;5.20;;;24.60;99.90;;;;;;5045477;28;20462;-87
2022/10/07 08:44:23;;;;;;;6.50;5.63;;;25.10;99.90;;;;;;5048921;28;20526;-87
2022/10/07 08:46:58;;;;;;;5.73;5.20;;;25.10;99.90;;;;;;5046561;28;20479;-86
2022/10/07 08:49:35;;;;;;;8.80;5.80;;;25.60;99.90;;;;;;5043609;28;20498;-86
2022/10/07 08:52:14;;;;;;;6.87;6.07;;;26.00;99.90;;;;;;5047984;28;20491;-88
2022/10/07 08:54:43;;;;;;;6.63;5.63;;;26.20;99.90;;;;;;5050546;28;20447;-86
2022/10/07 08:57:21;;;;;;;9.00;5.80;;;26.40;99.90;;;;;;5053551;28;20458;-86
2022/10/07 08:59:54;;;;;;;6.13;5.33;;;26.90;99.90;;;;;;5042273;28;20446;-87
2022/10/07 09:02:31;;;;;;;6.53;5.90;;;27.40;99.90;;;;;;5047239;28;20529;-87
2022/10/07 09:05:06;;;;;;;6.40;5.73;;;27.20;99.90;;;;;;5037098;28;20456;-87
2022/10/07 09:07:37;;;;;;;6.53;5.93;;;27.40;99.90;;;;;;5047977;28;20891;-87
2022/10/07 09:10:21;;;;;;;7.03;6.33;;;27.90;99.90;;;;;;5045277;28;20487;-89
2022/10/07 09:12:55;;;;;;;6.27;5.30;;;27.90;99.90;;;;;;5053917;28;20462;-87
2022/10/07 09:15:37;;;;;;;6.00;5.60;;;28.30;99.90;;;;;;5051279;28;20464;-87
2022/10/07 09:18:16;;;;;;;6.10;5.50;;;28.60;99.90;;;;;;5043734;28;20470;-87
2022/10/07 09:20:52;;;;;;;5.90;5.40;;;29.00;99.90;;;;;;5054928;28;20452;-87
2022/10/07 09:23:23;;;;;;;6.23;5.63;;;29.10;99.90;;;;;;5049368;28;20470;-87
2022/10/07 09:25:54;;;;;;;4.97;4.43;;;29.30;99.90;;;;;;5046074;28;20539;-89
2022/10/07 09:28:27;;;;;;;5.47;4.97;;;29.50;99.90;;;;;;5044701;28;20855;-87
2022/10/07 09:30:55;;;;;;;7.17;6.10;;;29.70;99.90;;;;;;5042067;28;20476;-88
2022/10/07 09:33:25;;;;;;;5.50;5.10;;;30.00;99.90;;;;;;5049189;28;20451;-87
2022/10/07 09:35:55;;;;;;;6.03;5.43;;;29.40;99.90;;;;;;5043444;28;20554;-86
2022/10/07 09:38:34;;;;;;;6.07;5.40;;;29.50;99.90;;;;;;5048646;28;20533;-86
2022/10/07 09:41:16;;;;;;;6.17;5.27;;;29.50;99.90;;;;;;5036624;28;20498;-87
2022/10/07 09:43:56;;;;;;;6.40;5.87;;;29.20;99.90;;;;;;5050453;28;20486;-88
2022/10/07 09:46:32;;;;;;;6.40;5.77;;;28.50;99.90;;;;;;5045328;28;20451;-88
2022/10/07 09:49:03;;;;;;;6.03;5.50;;;28.00;99.90;;;;;;5046753;28;20471;-89
2022/10/07 09:51:34;;;;;;;6.90;6.20;;;27.80;99.90;;;;;;5041334;28;20472;-88
2022/10/07 09:54:03;;;;;;;8.93;5.57;;;27.90;99.90;;;;;;5040654;28;20488;-88
2022/10/07 09:56:39;;;;;;;9.47;5.27;;;27.90;99.90;;;;;;5047586;28;20498;-88
2022/10/07 09:59:26;;;;;;;6.60;6.00;;;28.20;99.90;;;;;;5037672;28;20460;-88
2022/10/07 10:01:56;;;;;;;6.40;5.50;;;28.80;99.90;;;;;;5053468;28;20514;-87
2022/10/07 10:04:30;;;;;;;5.77;5.27;;;29.00;99.90;;;;;;5049019;28;20448;-85
2022/10/07 10:07:03;;;;;;;7.43;6.70;;;28.90;99.90;;;;;;5044107;28;20444;-86
2022/10/07 10:09:34;;;;;;;6.80;5.60;;;29.70;99.90;;;;;;5043656;28;20559;-85
2022/10/07 10:12:12;;;;;;;6.07;5.47;;;30.70;99.90;;;;;;5048777;28;20567;-85
2022/10/07 10:14:48;;;;;;;7.13;6.43;;;31.40;99.90;;;;;;5046415;28;20448;-86
2022/10/07 10:17:26;;;;;;;6.93;5.10;;;31.80;99.90;;;;;;5038195;28;20481;-86
2022/10/07 10:19:55;;;;;;;8.43;6.97;;;32.10;99.90;;;;;;5046348;28;20454;-87
2022/10/07 10:22:26;;;;;;;6.43;5.73;;;32.10;99.90;;;;;;5046664;28;20463;-86
2022/10/07 10:28:01;;;;;;;5.10;4.73;;;32.50;99.90;;;;;;4992886;28;20503;-86
2022/10/07 10:30:31;;;;;;;6.60;6.00;;;33.00;99.90;;;;;;5048914;28;21183;-86
2022/10/07 10:33:16;;;;;;;5.50;5.07;;;33.40;99.90;;;;;;5047612;28;20966;-86
2022/10/07 10:35:56;;;;;;;6.87;6.37;;;33.00;99.90;;;;;;5058866;28;20906;-86
2022/10/07 10:38:38;;;;;;;7.40;5.43;;;33.20;99.90;;;;;;5046047;28;20484;-86
2022/10/07 10:41:17;;;;;;;7.73;5.67;;;33.10;99.90;;;;;;5041868;28;20447;-85
2022/10/07 10:44:06;;;;;;;5.00;4.60;;;33.90;99.90;;;;;;5046560;28;20464;-86
2022/10/07 10:46:43;;;;;;;6.07;4.20;;;34.30;99.90;;;;;;5041033;28;20804;-86
2022/10/07 10:49:27;;;;;;;5.80;5.40;;;34.60;99.90;;;;;;5045661;28;20486;-86
2022/10/07 10:52:12;;;;;;;5.83;5.33;;;34.80;99.90;;;;;;5041549;28;20944;-86
2022/10/07 10:54:54;;;;;;;7.60;5.60;;;35.10;99.90;;;;;;5048081;28;20452;-85
2022/10/07 10:57:33;;;;;;;4.80;4.30;;;32.90;99.90;;;;;;5045274;28;20467;-86
2022/10/07 11:00:11;;;;;;;7.97;5.30;;;33.80;99.90;;;;;;5048940;28;20588;-85
2022/10/07 11:03:04;;;;;;;5.10;4.60;;;34.50;99.90;;;;;;5044462;28;20444;-86
2022/10/07 11:05:35;;;;;;;5.97;5.40;;;33.10;99.90;;;;;;5038653;28;20443;-84
2022/10/07 11:08:11;;;;;;;6.50;6.00;;;31.80;99.90;;;;;;5042729;28;20558;-85
2022/10/07 11:10:45;;;;;;;8.07;5.43;;;29.20;99.90;;;;;;5047519;28;20447;-85
2022/10/07 11:13:27;;;;;;;7.03;5.43;;;28.10;99.90;;;;;;5048438;28;20459;-85
2022/10/07 11:16:04;;;;;;;6.97;5.37;;;26.70;99.90;;;;;;5037171;28;20573;-83
2022/10/07 11:18:39;;;;;;;6.77;5.37;;;25.70;99.90;;;;;;5055370;28;20470;-85
2022/10/07 11:21:17;;;;;;;5.83;5.37;;;25.00;99.90;;;;;;5046852;28;20455;-84
2022/10/07 11:23:53;;;;;;;6.47;4.50;;;25.10;99.90;;;;;;5046723;28;20469;-85
2022/10/07 11:26:28;;;;;;;5.50;4.50;;;25.00;99.90;;;;;;5043483;28;20443;-85
2022/10/07 11:29:10;;;;;;;7.80;5.70;;;24.90;99.90;;;;;;5060237;28;20501;-85
2022/10/07 11:31:45;;;;;;;5.93;5.20;;;24.70;99.90;;;;;;5044189;28;20471;-85
2022/10/07 11:34:18;;;;;;;4.63;4.13;;;24.90;99.90;;;;;;5035754;28;20982;-85
2022/10/07 11:37:01;;;;;;;5.63;5.10;;;24.80;99.90;;;;;;5046638;28;20451;-85
2022/10/07 11:39:30;;;;;;;7.17;4.90;;;24.70;99.90;;;;;;5048273;28;20471;-87
2022/10/07 11:42:04;;;;;;;6.67;5.50;;;24.40;99.90;;;;;;5046355;28;20445;-87
2022/10/07 11:44:37;;;;;;;5.97;5.03;;;24.50;99.90;;;;;;5049886;28;20980;-87
2022/10/07 11:47:14;;;;;;;5.70;4.80;;;23.90;99.90;;;;;;5045010;28;20458;-87
2022/10/07 11:49:47;;;;;;;6.10;5.50;;;24.00;99.90;;;;;;5032564;28;20447;-87
2022/10/07 11:52:25;;;;;;;6.93;5.63;;;24.40;99.90;;;;;;5041805;28;21047;-87
2022/10/07 11:54:59;;;;;;;6.50;4.27;;;24.20;99.90;;;;;;5045638;28;20587;-87
2022/10/07 11:57:31;;;;;;;8.20;4.93;;;24.10;99.90;;;;;;5049688;28;20958;-88
2022/10/07 12:00:04;;;;;;;5.70;5.17;;;23.80;99.90;;;;;;5050553;28;20458;-88
2022/10/07 12:02:40;;;;;;;5.70;5.10;;;23.90;99.90;;;;;;5044343;28;20448;-87
2022/10/07 12:06:01;;;;;;;5.00;4.60;;;23.80;99.90;;;;;;5049073;28;20473;-87
2022/10/07 12:08:34;;;;;;;8.77;5.80;;;23.90;99.90;;;;;;5049498;28;21023;-88
2022/10/07 12:11:42;;;;;;;7.50;4.47;;;24.20;99.90;;;;;;5027213;28;20951;-87
2022/10/07 12:14:32;;;;;;;6.27;5.00;;;24.30;99.90;;;;;;5040284;28;20542;-88
2022/10/07 12:17:21;;;;;;;5.30;4.53;;;23.80;99.90;;;;;;5047076;28;20938;-88
2022/10/07 12:20:24;;;;;;;5.57;5.07;;;24.00;99.90;;;;;;5040498;28;20459;-87
2022/10/07 12:23:25;;;;;;;9.33;5.67;;;23.80;99.90;;;;;;5015831;28;20455;-86
2022/10/07 12:25:57;;;;;;;5.67;5.07;;;23.40;99.90;;;;;;5042510;28;20498;-86
2022/10/07 12:28:29;;;;;;;7.07;5.77;;;23.50;99.90;;;;;;5045681;28;20471;-86
2022/10/07 12:30:59;;;;;;;5.67;4.63;;;23.40;99.90;;;;;;5049296;28;20491;-87
2022/10/07 12:33:33;;;;;;;6.20;5.50;;;23.10;99.90;;;;;;5053455;28;20590;-87
2022/10/07 12:36:24;;;;;;;7.00;5.83;;;23.30;99.90;;;;;;5046701;28;20448;-86
2022/10/07 12:39:31;;;;;;;6.10;5.60;;;23.10;99.90;;;;;;5048618;28;20889;-87
2022/10/07 12:42:05;;;;;;;5.33;4.80;;;23.00;99.90;;;;;;5040824;28;20547;-87
2022/10/07 12:44:39;;;;;;;6.10;5.60;;;22.90;99.90;;;;;;5039858;28;20994;-87
2022/10/07 12:47:19;;;;;;;6.00;5.43;;;22.70;99.90;;;;;;5046739;28;20460;-87
2022/10/07 12:49:50;;;;;;;5.83;5.33;;;22.50;99.90;;;;;;5043489;28;20494;-88
2022/10/07 12:52:22;;;;;;;6.00;5.00;;;22.50;99.90;;;;;;5046113;28;20476;-87
2022/10/07 12:54:54;;;;;;;5.00;4.60;;;22.40;99.90;;;;;;5047376;28;20583;-88
2022/10/07 12:57:31;;;;;;;8.33;6.50;;;22.40;99.90;;;;;;5051050;28;20969;-86
2022/10/07 13:00:06;;;;;;;5.80;4.43;;;22.50;99.90;;;;;;5045988;28;20483;-87
2022/10/07 13:03:13;;;;;;;5.90;4.90;;;22.30;99.90;;;;;;5041764;28;21589;-87
2022/10/07 13:06:21;;;;;;;5.50;4.67;;;22.20;99.90;;;;;;5048791;28;20978;-87
2022/10/07 13:09:29;;;;;;;5.80;4.80;;;22.40;99.90;;;;;;5048080;28;20463;-86
2022/10/07 13:12:28;;;;;;;6.00;5.00;;;22.60;99.90;;;;;;5020270;28;20472;-87
2022/10/07 13:15:12;;;;;;;6.30;5.00;;;22.70;99.90;;;;;;5049095;28;20448;-88
2022/10/07 13:17:47;;;;;;;9.73;5.03;;;22.60;99.90;;;;;;5041531;28;20482;-86
2022/10/07 13:20:28;;;;;;;5.87;5.47;;;22.40;99.90;;;;;;5044206;28;20454;-86
2022/10/07 13:23:02;;;;;;;6.00;5.40;;;22.10;99.90;;;;;;5046173;28;20455;-87
2022/10/07 13:25:30;;;;;;;5.70;5.20;;;21.90;99.90;;;;;;5052378;28;20461;-87
2022/10/07 13:28:00;;;;;;;5.77;4.67;;;21.90;99.90;;;;;;5061317;28;20497;-88
2022/10/07 13:30:39;;;;;;;6.30;4.67;;;21.90;99.90;;;;;;5045088;28;20467;-87